sensor_id;sensor_type;location;lat;lon;timestamp;pressure;altitude;pressure_sealevel;temperature
15709;BMP180;7954;51.914;8.420;2023-04-25T00:00:25;99546.47;;;13.00
15709;BMP180;7954;51.914;8.420;2023-04-25T00:02:53;99549.44;;;13.03
15709;BMP180;7954;51.914;8.420;2023-04-25T00:05:23;99558.66;;;13.02
15709;BMP180;7954;51.914;8.420;2023-04-25T00:07:51;99550.28;;;13.09
15709;BMP180;7954;51.914;8.420;2023-04-25T00:10:19;99552.34;;;13.11
15709;BMP180;7954;51.914;8.420;2023-04-25T00:12:48;99562.47;;;13.11
15709;BMP180;7954;51.914;8.420;2023-04-25T00:15:17;99560.25;;;13.02
15709;BMP180;7954;51.914;8.420;2023-04-25T00:17:46;99558.75;;;13.15
15709;BMP180;7954;51.914;8.420;2023-04-25T00:20:15;99553.91;;;13.16
15709;BMP180;7954;51.914;8.420;2023-04-25T00:22:43;99558.69;;;13.20
15709;BMP180;7954;51.914;8.420;2023-04-25T00:25:11;99557.63;;;13.13
15709;BMP180;7954;51.914;8.420;2023-04-25T00:27:39;99566.69;;;13.05
15709;BMP180;7954;51.914;8.420;2023-04-25T00:30:09;99555.78;;;12.88
15709;BMP180;7954;51.914;8.420;2023-04-25T00:32:38;99553.34;;;13.01
15709;BMP180;7954;51.914;8.420;2023-04-25T00:35:06;99557.31;;;12.99
15709;BMP180;7954;51.914;8.420;2023-04-25T00:37:34;99560.16;;;12.84
15709;BMP180;7954;51.914;8.420;2023-04-25T00:40:04;99551.97;;;12.74
15709;BMP180;7954;51.914;8.420;2023-04-25T00:42:34;99555.72;;;12.94
15709;BMP180;7954;51.914;8.420;2023-04-25T00:45:05;99562.97;;;12.80
15709;BMP180;7954;51.914;8.420;2023-04-25T00:47:35;99546.47;;;13.00
15709;BMP180;7954;51.914;8.420;2023-04-25T00:50:07;99550.88;;;12.95
15709;BMP180;7954;51.914;8.420;2023-04-25T00:52:35;99548.75;;;12.98
15709;BMP180;7954;51.914;8.420;2023-04-25T00:55:04;99558.41;;;13.01
15709;BMP180;7954;51.914;8.420;2023-04-25T00:57:34;99545.91;;;13.08
15709;BMP180;7954;51.914;8.420;2023-04-25T01:00:03;99546.00;;;13.02
15709;BMP180;7954;51.914;8.420;2023-04-25T01:02:32;99541.81;;;13.03
15709;BMP180;7954;51.914;8.420;2023-04-25T01:05:00;99552.44;;;13.00
15709;BMP180;7954;51.914;8.420;2023-04-25T01:07:30;99540.56;;;12.88
15709;BMP180;7954;51.914;8.420;2023-04-25T01:09:58;99551.28;;;12.75
15709;BMP180;7954;51.914;8.420;2023-04-25T01:12:26;99551.00;;;12.79
15709;BMP180;7954;51.914;8.420;2023-04-25T01:14:54;99552.13;;;12.81
15709;BMP180;7954;51.914;8.420;2023-04-25T01:17:22;99556.28;;;12.81
15709;BMP180;7954;51.914;8.420;2023-04-25T01:19:51;99556.34;;;12.75
15709;BMP180;7954;51.914;8.420;2023-04-25T01:22:20;99544.75;;;12.82
15709;BMP180;7954;51.914;8.420;2023-04-25T01:24:48;99553.06;;;12.76
15709;BMP180;7954;51.914;8.420;2023-04-25T01:27:18;99548.22;;;12.54
15709;BMP180;7954;51.914;8.420;2023-04-25T01:29:47;99550.63;;;12.65
15709;BMP180;7954;51.914;8.420;2023-04-25T01:32:15;99552.06;;;12.63
15709;BMP180;7954;51.914;8.420;2023-04-25T01:34:43;99562.53;;;12.48
15709;BMP180;7954;51.914;8.420;2023-04-25T01:37:11;99554.19;;;12.55
15709;BMP180;7954;51.914;8.420;2023-04-25T01:39:41;99553.66;;;12.63
15709;BMP180;7954;51.914;8.420;2023-04-25T01:42:08;99546.63;;;12.78
15709;BMP180;7954;51.914;8.420;2023-04-25T01:44:36;99562.53;;;12.48
15709;BMP180;7954;51.914;8.420;2023-04-25T01:47:06;99566.00;;;12.72
15709;BMP180;7954;51.914;8.420;2023-04-25T01:49:33;99574.50;;;12.78
15709;BMP180;7954;51.914;8.420;2023-04-25T01:52:01;99558.13;;;12.76
15709;BMP180;7954;51.914;8.420;2023-04-25T01:54:29;99566.47;;;12.75
15709;BMP180;7954;51.914;8.420;2023-04-25T01:56:59;99568.81;;;12.68
15709;BMP180;7954;51.914;8.420;2023-04-25T01:59:27;99568.75;;;12.74
15709;BMP180;7954;51.914;8.420;2023-04-25T02:01:55;99574.84;;;12.63
15709;BMP180;7954;51.914;8.420;2023-04-25T02:04:23;99585.00;;;12.58
15709;BMP180;7954;51.914;8.420;2023-04-25T02:06:51;99590.03;;;12.63
15709;BMP180;7954;51.914;8.420;2023-04-25T02:09:19;99588.19;;;12.62
15709;BMP180;7954;51.914;8.420;2023-04-25T02:11:47;99585.25;;;12.54
15709;BMP180;7954;51.914;8.420;2023-04-25T02:14:17;99584.50;;;12.60
15709;BMP180;7954;51.914;8.420;2023-04-25T02:16:44;99586.97;;;12.71
15709;BMP180;7954;51.914;8.420;2023-04-25T02:19:13;99587.38;;;12.80
15709;BMP180;7954;51.914;8.420;2023-04-25T02:21:40;99582.09;;;12.78
15709;BMP180;7954;51.914;8.420;2023-04-25T02:24:09;99588.13;;;12.73
15709;BMP180;7954;51.914;8.420;2023-04-25T02:26:36;99600.59;;;12.66
15709;BMP180;7954;51.914;8.420;2023-04-25T02:29:04;99599.22;;;12.63
15709;BMP180;7954;51.914;8.420;2023-04-25T02:31:36;99581.69;;;12.70
15709;BMP180;7954;51.914;8.420;2023-04-25T02:34:04;99594.22;;;12.57
15709;BMP180;7954;51.914;8.420;2023-04-25T02:36:32;99593.25;;;12.62
15709;BMP180;7954;51.914;8.420;2023-04-25T02:39:01;99595.44;;;12.48
15709;BMP180;7954;51.914;8.420;2023-04-25T02:41:29;99597.91;;;12.54
15709;BMP180;7954;51.914;8.420;2023-04-25T02:43:57;99588.53;;;12.47
15709;BMP180;7954;51.914;8.420;2023-04-25T02:46:24;99600.72;;;12.50
15709;BMP180;7954;51.914;8.420;2023-04-25T02:49:06;99598.13;;;12.55
15709;BMP180;7954;51.914;8.420;2023-04-25T02:51:34;99601.94;;;12.70
15709;BMP180;7954;51.914;8.420;2023-04-25T02:54:02;99603.13;;;12.66
15709;BMP180;7954;51.914;8.420;2023-04-25T02:56:30;99600.66;;;12.55
15709;BMP180;7954;51.914;8.420;2023-04-25T02:58:58;99602.88;;;12.70
15709;BMP180;7954;51.914;8.420;2023-04-25T03:01:28;99599.88;;;12.73
15709;BMP180;7954;51.914;8.420;2023-04-25T03:03:55;99602.84;;;12.76
15709;BMP180;7954;51.914;8.420;2023-04-25T03:06:30;99597.22;;;12.83
15709;BMP180;7954;51.914;8.420;2023-04-25T03:08:58;99598.38;;;12.85
15709;BMP180;7954;51.914;8.420;2023-04-25T03:11:27;99613.00;;;12.70
15709;BMP180;7954;51.914;8.420;2023-04-25T03:13:54;99608.84;;;12.71
15709;BMP180;7954;51.914;8.420;2023-04-25T03:16:23;99601.84;;;12.86
15709;BMP180;7954;51.914;8.420;2023-04-25T03:18:51;99607.38;;;12.89
15709;BMP180;7954;51.914;8.420;2023-04-25T03:21:19;99613.06;;;12.93
15709;BMP180;7954;51.914;8.420;2023-04-25T03:23:48;99606.91;;;12.86
15709;BMP180;7954;51.914;8.420;2023-04-25T03:26:17;99613.78;;;12.92
15709;BMP180;7954;51.914;8.420;2023-04-25T03:28:44;99612.34;;;13.00
15709;BMP180;7954;51.914;8.420;2023-04-25T03:31:13;99611.00;;;12.96
15709;BMP180;7954;51.914;8.420;2023-04-25T03:33:42;99628.63;;;13.07
15709;BMP180;7954;51.914;8.420;2023-04-25T03:36:10;99623.41;;;13.24
15709;BMP180;7954;51.914;8.420;2023-04-25T03:38:38;99621.28;;;13.27
15709;BMP180;7954;51.914;8.420;2023-04-25T03:41:09;99627.25;;;13.33
15709;BMP180;7954;51.914;8.420;2023-04-25T03:43:36;99620.28;;;13.37
15709;BMP180;7954;51.914;8.420;2023-04-25T03:46:05;99638.28;;;13.33
15709;BMP180;7954;51.914;8.420;2023-04-25T03:48:33;99634.94;;;13.22
15709;BMP180;7954;51.914;8.420;2023-04-25T03:51:01;99635.28;;;13.12
15709;BMP180;7954;51.914;8.420;2023-04-25T03:53:29;99655.66;;;12.96
15709;BMP180;7954;51.914;8.420;2023-04-25T03:55:56;99659.16;;;12.91
15709;BMP180;7954;51.914;8.420;2023-04-25T03:58:26;99668.69;;;12.76
15709;BMP180;7954;51.914;8.420;2023-04-25T04:00:53;99661.75;;;12.80
15709;BMP180;7954;51.914;8.420;2023-04-25T04:03:21;99669.34;;;12.80
15709;BMP180;7954;51.914;8.420;2023-04-25T04:05:50;99669.34;;;12.80
15709;BMP180;7954;51.914;8.420;2023-04-25T04:08:18;99674.16;;;12.79
15709;BMP180;7954;51.914;8.420;2023-04-25T04:10:47;99670.53;;;12.71
15709;BMP180;7954;51.914;8.420;2023-04-25T04:13:15;99680.19;;;12.74
15709;BMP180;7954;51.914;8.420;2023-04-25T04:15:45;99682.16;;;12.58
15709;BMP180;7954;51.914;8.420;2023-04-25T04:18:13;99689.03;;;12.59
15709;BMP180;7954;51.914;8.420;2023-04-25T04:20:41;99684.41;;;12.62
15709;BMP180;7954;51.914;8.420;2023-04-25T04:23:09;99695.53;;;12.52
15709;BMP180;7954;51.914;8.420;2023-04-25T04:25:37;99688.16;;;12.53
15709;BMP180;7954;51.914;8.420;2023-04-25T04:28:06;99684.69;;;12.58
15709;BMP180;7954;51.914;8.420;2023-04-25T04:30:34;99696.88;;;12.55
15709;BMP180;7954;51.914;8.420;2023-04-25T04:33:05;99701.78;;;12.43
15709;BMP180;7954;51.914;8.420;2023-04-25T04:35:34;99701.81;;;12.37
15709;BMP180;7954;51.914;8.420;2023-04-25T04:38:01;99698.28;;;12.53
15709;BMP180;7954;51.914;8.420;2023-04-25T04:40:30;99704.94;;;12.58
15709;BMP180;7954;51.914;8.420;2023-04-25T04:42:59;99718.72;;;12.60
15709;BMP180;7954;51.914;8.420;2023-04-25T04:45:27;99713.00;;;12.50
15709;BMP180;7954;51.914;8.420;2023-04-25T04:47:55;99719.19;;;12.63
15709;BMP180;7954;51.914;8.420;2023-04-25T04:50:25;99727.41;;;12.68
15709;BMP180;7954;51.914;8.420;2023-04-25T04:52:54;99717.53;;;12.64
15709;BMP180;7954;51.914;8.420;2023-04-25T04:55:23;99720.84;;;12.52
15709;BMP180;7954;51.914;8.420;2023-04-25T04:57:50;99720.84;;;12.52
15709;BMP180;7954;51.914;8.420;2023-04-25T05:00:18;99723.97;;;12.73
15709;BMP180;7954;51.914;8.420;2023-04-25T05:02:47;99729.72;;;12.72
15709;BMP180;7954;51.914;8.420;2023-04-25T05:05:15;99725.44;;;12.54
15709;BMP180;7954;51.914;8.420;2023-04-25T05:07:45;99733.25;;;12.50
15709;BMP180;7954;51.914;8.420;2023-04-25T05:10:13;99739.94;;;12.50
15709;BMP180;7954;51.914;8.420;2023-04-25T05:12:41;99739.69;;;12.54
15709;BMP180;7954;51.914;8.420;2023-04-25T05:15:09;99747.75;;;12.51
15709;BMP180;7954;51.914;8.420;2023-04-25T05:17:37;99745.56;;;12.31
15709;BMP180;7954;51.914;8.420;2023-04-25T05:20:07;99750.22;;;12.68
15709;BMP180;7954;51.914;8.420;2023-04-25T05:22:36;99751.41;;;12.64
15709;BMP180;7954;51.914;8.420;2023-04-25T05:25:07;99750.28;;;12.51
15709;BMP180;7954;51.914;8.420;2023-04-25T05:27:35;99758.50;;;12.72
15709;BMP180;7954;51.914;8.420;2023-04-25T05:30:05;99755.47;;;12.75
15709;BMP180;7954;51.914;8.420;2023-04-25T05:32:33;99755.91;;;12.83
15709;BMP180;7954;51.914;8.420;2023-04-25T05:35:01;99754.72;;;12.97
15709;BMP180;7954;51.914;8.420;2023-04-25T05:37:32;99765.31;;;12.95
15709;BMP180;7954;51.914;8.420;2023-04-25T05:39:59;99759.81;;;12.92
15709;BMP180;7954;51.914;8.420;2023-04-25T05:42:32;99769.50;;;12.89
15709;BMP180;7954;51.914;8.420;2023-04-25T05:45:00;99768.06;;;12.96
15709;BMP180;7954;51.914;8.420;2023-04-25T05:47:29;99773.63;;;12.94
15709;BMP180;7954;51.914;8.420;2023-04-25T05:49:56;99767.28;;;13.14
15709;BMP180;7954;51.914;8.420;2023-04-25T05:52:25;99782.41;;;13.25
15709;BMP180;7954;51.914;8.420;2023-04-25T05:54:54;99780.56;;;13.24
15709;BMP180;7954;51.914;8.420;2023-04-25T05:57:22;99783.09;;;13.24
15709;BMP180;7954;51.914;8.420;2023-04-25T05:59:52;99781.06;;;13.50
15709;BMP180;7954;51.914;8.420;2023-04-25T06:02:20;99782.16;;;13.57
15709;BMP180;7954;51.914;8.420;2023-04-25T06:04:49;99783.78;;;13.57
15709;BMP180;7954;51.914;8.420;2023-04-25T06:07:19;99786.88;;;13.44
15709;BMP180;7954;51.914;8.420;2023-04-25T06:09:47;99791.63;;;13.53
15709;BMP180;7954;51.914;8.420;2023-04-25T06:12:16;99793.69;;;13.27
15709;BMP180;7954;51.914;8.420;2023-04-25T06:14:43;99806.00;;;13.42
15709;BMP180;7954;51.914;8.420;2023-04-25T06:17:14;99796.41;;;13.62
15709;BMP180;7954;51.914;8.420;2023-04-25T06:19:41;99782.56;;;13.89
15709;BMP180;7954;51.914;8.420;2023-04-25T06:22:10;99787.50;;;14.00
15709;BMP180;7954;51.914;8.420;2023-04-25T06:24:38;99781.91;;;14.08
15709;BMP180;7954;51.914;8.420;2023-04-25T06:27:05;99796.50;;;14.04
15709;BMP180;7954;51.914;8.420;2023-04-25T06:29:33;99793.81;;;13.97
15709;BMP180;7954;51.914;8.420;2023-04-25T06:32:01;99797.84;;;14.07
15709;BMP180;7954;51.914;8.420;2023-04-25T06:34:30;99792.97;;;14.14
15709;BMP180;7954;51.914;8.420;2023-04-25T06:36:59;99801.19;;;14.24
15709;BMP180;7954;51.914;8.420;2023-04-25T06:39:27;99803.13;;;14.14
15709;BMP180;7954;51.914;8.420;2023-04-25T06:41:58;99806.22;;;14.01
15709;BMP180;7954;51.914;8.420;2023-04-25T06:44:26;99804.13;;;14.27
15709;BMP180;7954;51.914;8.420;2023-04-25T06:46:55;99808.50;;;14.51
15709;BMP180;7954;51.914;8.420;2023-04-25T06:49:24;99810.75;;;14.55
15709;BMP180;7954;51.914;8.420;2023-04-25T06:51:53;99798.94;;;14.56
15709;BMP180;7954;51.914;8.420;2023-04-25T06:54:21;99805.78;;;14.62
15709;BMP180;7954;51.914;8.420;2023-04-25T06:56:49;99806.94;;;14.82
15709;BMP180;7954;51.914;8.420;2023-04-25T06:59:21;99815.69;;;14.84
15709;BMP180;7954;51.914;8.420;2023-04-25T07:01:50;99815.63;;;14.89
15709;BMP180;7954;51.914;8.420;2023-04-25T07:04:20;99812.31;;;14.96
15709;BMP180;7954;51.914;8.420;2023-04-25T07:06:48;99819.88;;;15.01
15709;BMP180;7954;51.914;8.420;2023-04-25T07:09:19;99812.16;;;15.07
15709;BMP180;7954;51.914;8.420;2023-04-25T07:11:47;99817.41;;;15.32
15709;BMP180;7954;51.914;8.420;2023-04-25T07:14:15;99825.91;;;15.14
15709;BMP180;7954;51.914;8.420;2023-04-25T07:16:43;99824.84;;;15.07
15709;BMP180;7954;51.914;8.420;2023-04-25T07:19:13;99839.84;;;14.93
15709;BMP180;7954;51.914;8.420;2023-04-25T07:21:41;99828.06;;;14.93
15709;BMP180;7954;51.914;8.420;2023-04-25T07:24:10;99835.75;;;15.06
15709;BMP180;7954;51.914;8.420;2023-04-25T07:26:40;99840.63;;;15.04
15709;BMP180;7954;51.914;8.420;2023-04-25T07:29:08;99840.25;;;15.14
15709;BMP180;7954;51.914;8.420;2023-04-25T07:31:36;99839.78;;;15.16
15709;BMP180;7954;51.914;8.420;2023-04-25T07:34:05;99839.25;;;15.24
15709;BMP180;7954;51.914;8.420;2023-04-25T07:36:33;99837.22;;;15.52
15709;BMP180;7954;51.914;8.420;2023-04-25T07:39:01;99835.03;;;15.73
15709;BMP180;7954;51.914;8.420;2023-04-25T07:41:29;99832.00;;;15.75
15709;BMP180;7954;51.914;8.420;2023-04-25T07:43:58;99847.69;;;15.30
15709;BMP180;7954;51.914;8.420;2023-04-25T07:46:29;99850.69;;;15.33
15709;BMP180;7954;51.914;8.420;2023-04-25T07:48:57;99853.06;;;15.26
15709;BMP180;7954;51.914;8.420;2023-04-25T07:51:25;99856.88;;;15.35
15709;BMP180;7954;51.914;8.420;2023-04-25T07:53:54;99849.03;;;15.16
15709;BMP180;7954;51.914;8.420;2023-04-25T07:56:21;99854.78;;;15.38
15709;BMP180;7954;51.914;8.420;2023-04-25T07:58:50;99856.66;;;15.51
15709;BMP180;7954;51.914;8.420;2023-04-25T08:01:20;99862.56;;;15.88
15709;BMP180;7954;51.914;8.420;2023-04-25T08:03:48;99860.91;;;15.76
15709;BMP180;7954;51.914;8.420;2023-04-25T08:06:17;99854.25;;;16.13
15709;BMP180;7954;51.914;8.420;2023-04-25T08:08:45;99851.53;;;16.49
15709;BMP180;7954;51.914;8.420;2023-04-25T08:11:14;99859.28;;;16.31
15709;BMP180;7954;51.914;8.420;2023-04-25T08:13:42;99862.31;;;16.16
15709;BMP180;7954;51.914;8.420;2023-04-25T08:16:10;99872.94;;;16.32
15709;BMP180;7954;51.914;8.420;2023-04-25T08:18:39;99866.44;;;16.46
15709;BMP180;7954;51.914;8.420;2023-04-25T08:21:07;99867.13;;;16.58
15709;BMP180;7954;51.914;8.420;2023-04-25T08:23:38;99868.06;;;16.71
15709;BMP180;7954;51.914;8.420;2023-04-25T08:26:05;99867.84;;;16.69
15709;BMP180;7954;51.914;8.420;2023-04-25T08:28:33;99874.38;;;16.67
15709;BMP180;7954;51.914;8.420;2023-04-25T08:31:03;99886.09;;;16.47
15709;BMP180;7954;51.914;8.420;2023-04-25T08:33:31;99879.28;;;16.78
15709;BMP180;7954;51.914;8.420;2023-04-25T08:36:01;99879.28;;;17.10
15709;BMP180;7954;51.914;8.420;2023-04-25T08:38:30;99883.69;;;17.11
15709;BMP180;7954;51.914;8.420;2023-04-25T08:40:59;99872.28;;;17.02
15709;BMP180;7954;51.914;8.420;2023-04-25T08:43:29;99894.25;;;16.94
15709;BMP180;7954;51.914;8.420;2023-04-25T08:45:58;99895.97;;;16.88
15709;BMP180;7954;51.914;8.420;2023-04-25T08:48:28;99900.63;;;17.10
15709;BMP180;7954;51.914;8.420;2023-04-25T08:50:56;99902.38;;;17.04
15709;BMP180;7954;51.914;8.420;2023-04-25T08:53:28;99905.03;;;16.86
15709;BMP180;7954;51.914;8.420;2023-04-25T08:55:58;99903.91;;;16.97
15709;BMP180;7954;51.914;8.420;2023-04-25T08:58:28;99917.00;;;16.68
15709;BMP180;7954;51.914;8.420;2023-04-25T09:00:56;99909.84;;;16.28
15709;BMP180;7954;51.914;8.420;2023-04-25T09:03:24;99920.94;;;16.29
15709;BMP180;7954;51.914;8.420;2023-04-25T09:05:53;99934.03;;;16.19
15709;BMP180;7954;51.914;8.420;2023-04-25T09:08:22;99914.63;;;16.32
15709;BMP180;7954;51.914;8.420;2023-04-25T09:10:53;99928.63;;;16.54
15709;BMP180;7954;51.914;8.420;2023-04-25T09:13:27;99919.75;;;16.94
15709;BMP180;7954;51.914;8.420;2023-04-25T09:15:56;99930.44;;;16.92
15709;BMP180;7954;51.914;8.420;2023-04-25T09:18:25;99935.44;;;16.73
15709;BMP180;7954;51.914;8.420;2023-04-25T09:20:58;99931.56;;;16.81
15709;BMP180;7954;51.914;8.420;2023-04-25T09:23:40;99928.69;;;17.23
15709;BMP180;7954;51.914;8.420;2023-04-25T09:26:13;99936.25;;;17.28
15709;BMP180;7954;51.914;8.420;2023-04-25T09:28:41;99936.47;;;16.80
15709;BMP180;7954;51.914;8.420;2023-04-25T09:31:10;99958.59;;;16.99
15709;BMP180;7954;51.914;8.420;2023-04-25T09:33:40;99954.75;;;16.83
15709;BMP180;7954;51.914;8.420;2023-04-25T09:36:09;99955.09;;;17.23
15709;BMP180;7954;51.914;8.420;2023-04-25T09:38:40;99946.66;;;17.30
15709;BMP180;7954;51.914;8.420;2023-04-25T09:41:10;99952.91;;;16.94
15709;BMP180;7954;51.914;8.420;2023-04-25T09:43:39;99952.19;;;16.95
15709;BMP180;7954;51.914;8.420;2023-04-25T09:46:08;99965.53;;;17.12
15709;BMP180;7954;51.914;8.420;2023-04-25T09:48:39;99954.25;;;17.54
15709;BMP180;7954;51.914;8.420;2023-04-25T09:51:09;99950.09;;;17.74
15709;BMP180;7954;51.914;8.420;2023-04-25T09:53:39;99949.09;;;17.23
15709;BMP180;7954;51.914;8.420;2023-04-25T09:56:11;99948.38;;;17.11
15709;BMP180;7954;51.914;8.420;2023-04-25T09:58:40;99945.06;;;16.93
15709;BMP180;7954;51.914;8.420;2023-04-25T10:01:10;99948.63;;;16.88
15709;BMP180;7954;51.914;8.420;2023-04-25T10:03:39;99959.41;;;17.05
15709;BMP180;7954;51.914;8.420;2023-04-25T10:06:09;99963.28;;;16.96
15709;BMP180;7954;51.914;8.420;2023-04-25T10:08:40;99959.19;;;17.16
15709;BMP180;7954;51.914;8.420;2023-04-25T10:11:11;99962.91;;;16.93
15709;BMP180;7954;51.914;8.420;2023-04-25T10:13:44;99963.63;;;16.92
15709;BMP180;7954;51.914;8.420;2023-04-25T10:16:14;99970.41;;;16.49
15709;BMP180;7954;51.914;8.420;2023-04-25T10:18:43;99966.97;;;16.61
15709;BMP180;7954;51.914;8.420;2023-04-25T10:21:11;99980.81;;;16.50
15709;BMP180;7954;51.914;8.420;2023-04-25T10:23:39;99990.09;;;16.50
15709;BMP180;7954;51.914;8.420;2023-04-25T10:26:08;99990.81;;;16.49
15709;BMP180;7954;51.914;8.420;2023-04-25T10:29:03;99981.53;;;16.74
15709;BMP180;7954;51.914;8.420;2023-04-25T10:31:31;99985.75;;;16.86
15709;BMP180;7954;51.914;8.420;2023-04-25T10:34:00;99979.63;;;17.28
15709;BMP180;7954;51.914;8.420;2023-04-25T10:36:31;99981.16;;;17.08
15709;BMP180;7954;51.914;8.420;2023-04-25T10:39:03;99981.16;;;16.96
15709;BMP180;7954;51.914;8.420;2023-04-25T10:41:45;99979.09;;;16.93
15709;BMP180;7954;51.914;8.420;2023-04-25T10:44:16;99982.47;;;16.87
15709;BMP180;7954;51.914;8.420;2023-04-25T10:46:46;99980.75;;;16.68
15709;BMP180;7954;51.914;8.420;2023-04-25T10:49:29;99976.75;;;17.20
15709;BMP180;7954;51.914;8.420;2023-04-25T10:52:14;99977.03;;;17.53
15709;BMP180;7954;51.914;8.420;2023-04-25T10:54:46;99986.16;;;17.70
15709;BMP180;7954;51.914;8.420;2023-04-25T10:57:26;99968.66;;;18.44
15709;BMP180;7954;51.914;8.420;2023-04-25T11:00:00;99954.69;;;18.80
15709;BMP180;7954;51.914;8.420;2023-04-25T11:02:36;99962.28;;;18.93
15709;BMP180;7954;51.914;8.420;2023-04-25T11:05:06;99953.66;;;18.40
15709;BMP180;7954;51.914;8.420;2023-04-25T11:07:37;99967.94;;;18.06
15709;BMP180;7954;51.914;8.420;2023-04-25T11:10:06;99982.56;;;18.07
15709;BMP180;7954;51.914;8.420;2023-04-25T11:12:35;99969.84;;;17.95
15709;BMP180;7954;51.914;8.420;2023-04-25T11:15:07;99979.44;;;17.90
15709;BMP180;7954;51.914;8.420;2023-04-25T11:17:36;99976.31;;;17.86
15709;BMP180;7954;51.914;8.420;2023-04-25T11:20:07;99980.13;;;17.26
15709;BMP180;7954;51.914;8.420;2023-04-25T11:22:38;99976.88;;;17.27
15709;BMP180;7954;51.914;8.420;2023-04-25T11:25:10;99986.78;;;17.31
15709;BMP180;7954;51.914;8.420;2023-04-25T11:27:49;99995.44;;;17.38
15709;BMP180;7954;51.914;8.420;2023-04-25T11:30:20;99987.75;;;17.50
15709;BMP180;7954;51.914;8.420;2023-04-25T11:32:50;99991.75;;;17.80
15709;BMP180;7954;51.914;8.420;2023-04-25T11:35:18;99983.69;;;18.48
15709;BMP180;7954;51.914;8.420;2023-04-25T11:37:46;99980.03;;;18.98
15709;BMP180;7954;51.914;8.420;2023-04-25T11:40:14;99970.91;;;19.00
15709;BMP180;7954;51.914;8.420;2023-04-25T11:42:44;99977.00;;;18.81
15709;BMP180;7954;51.914;8.420;2023-04-25T11:45:12;99996.25;;;18.66
15709;BMP180;7954;51.914;8.420;2023-04-25T11:47:42;99978.63;;;18.55
15709;BMP180;7954;51.914;8.420;2023-04-25T11:50:12;99994.22;;;18.89
15709;BMP180;7954;51.914;8.420;2023-04-25T11:52:42;100002.16;;;18.98
15709;BMP180;7954;51.914;8.420;2023-04-25T11:55:13;100003.66;;;19.03
15709;BMP180;7954;51.914;8.420;2023-04-25T11:57:44;100006.00;;;19.01
15709;BMP180;7954;51.914;8.420;2023-04-25T12:00:14;99996.31;;;18.72
15709;BMP180;7954;51.914;8.420;2023-04-25T12:02:46;99999.34;;;18.89
15709;BMP180;7954;51.914;8.420;2023-04-25T12:05:15;100004.78;;;18.59
15709;BMP180;7954;51.914;8.420;2023-04-25T12:07:46;100007.16;;;18.58
15709;BMP180;7954;51.914;8.420;2023-04-25T12:10:17;100008.16;;;18.46
15709;BMP180;7954;51.914;8.420;2023-04-25T12:12:46;100023.84;;;18.87
15709;BMP180;7954;51.914;8.420;2023-04-25T12:15:15;100009.09;;;19.58
15709;BMP180;7954;51.914;8.420;2023-04-25T12:17:49;100006.91;;;20.02
15709;BMP180;7954;51.914;8.420;2023-04-25T12:20:20;100007.63;;;20.07
15709;BMP180;7954;51.914;8.420;2023-04-25T12:22:51;100002.97;;;19.91
15709;BMP180;7954;51.914;8.420;2023-04-25T12:25:35;100008.16;;;19.58
15709;BMP180;7954;51.914;8.420;2023-04-25T12:28:15;100012.84;;;19.08
15709;BMP180;7954;51.914;8.420;2023-04-25T12:30:57;100000.28;;;19.49
15709;BMP180;7954;51.914;8.420;2023-04-25T12:33:28;100003.16;;;19.86
15709;BMP180;7954;51.914;8.420;2023-04-25T12:35:57;100016.22;;;19.94
15709;BMP180;7954;51.914;8.420;2023-04-25T12:38:26;100021.06;;;19.79
15709;BMP180;7954;51.914;8.420;2023-04-25T12:40:57;100007.69;;;20.21
15709;BMP180;7954;51.914;8.420;2023-04-25T12:43:25;100011.19;;;20.64
15709;BMP180;7954;51.914;8.420;2023-04-25T12:45:54;100026.78;;;22.07
15709;BMP180;7954;51.914;8.420;2023-04-25T12:48:23;99999.28;;;23.33
15709;BMP180;7954;51.914;8.420;2023-04-25T12:50:53;100015.66;;;24.34
15709;BMP180;7954;51.914;8.420;2023-04-25T12:53:22;100013.41;;;24.85
15709;BMP180;7954;51.914;8.420;2023-04-25T12:55:50;99961.34;;;23.94
15709;BMP180;7954;51.914;8.420;2023-04-25T12:58:19;100022.22;;;22.85
15709;BMP180;7954;51.914;8.420;2023-04-25T13:00:47;100007.00;;;24.81
15709;BMP180;7954;51.914;8.420;2023-04-25T13:03:15;99986.72;;;26.09
15709;BMP180;7954;51.914;8.420;2023-04-25T13:05:44;99986.84;;;27.15
15709;BMP180;7954;51.914;8.420;2023-04-25T13:08:14;99980.69;;;27.50
15709;BMP180;7954;51.914;8.420;2023-04-25T13:10:42;99998.69;;;26.60
15709;BMP180;7954;51.914;8.420;2023-04-25T13:13:10;99948.19;;;27.90
15709;BMP180;7954;51.914;8.420;2023-04-25T13:15:39;99982.75;;;27.44
15709;BMP180;7954;51.914;8.420;2023-04-25T13:18:07;99960.06;;;25.60
15709;BMP180;7954;51.914;8.420;2023-04-25T13:20:35;99966.81;;;23.96
15709;BMP180;7954;51.914;8.420;2023-04-25T13:23:04;99982.47;;;22.68
15709;BMP180;7954;51.914;8.420;2023-04-25T13:25:34;100031.53;;;24.06
15709;BMP180;7954;51.914;8.420;2023-04-25T13:28:02;100027.94;;;22.61
15709;BMP180;7954;51.914;8.420;2023-04-25T13:30:30;100020.44;;;21.53
15709;BMP180;7954;51.914;8.420;2023-04-25T13:33:00;100049.63;;;20.36
15709;BMP180;7954;51.914;8.420;2023-04-25T13:35:30;100054.38;;;19.72
15709;BMP180;7954;51.914;8.420;2023-04-25T13:37:58;100049.06;;;19.11
15709;BMP180;7954;51.914;8.420;2023-04-25T13:40:27;100056.00;;;18.15
15709;BMP180;7954;51.914;8.420;2023-04-25T13:42:56;100070.69;;;17.91
15709;BMP180;7954;51.914;8.420;2023-04-25T13:45:24;100069.91;;;17.85
15709;BMP180;7954;51.914;8.420;2023-04-25T13:47:52;100113.50;;;18.43
15709;BMP180;7954;51.914;8.420;2023-04-25T13:50:20;100053.13;;;19.42
15709;BMP180;7954;51.914;8.420;2023-04-25T13:52:48;100069.06;;;22.67
15709;BMP180;7954;51.914;8.420;2023-04-25T13:55:17;100043.28;;;25.47
15709;BMP180;7954;51.914;8.420;2023-04-25T13:57:45;100029.72;;;26.76
15709;BMP180;7954;51.914;8.420;2023-04-25T14:00:15;100029.16;;;27.86
15709;BMP180;7954;51.914;8.420;2023-04-25T14:02:45;100012.75;;;28.60
15709;BMP180;7954;51.914;8.420;2023-04-25T14:05:16;99986.84;;;27.42
15709;BMP180;7954;51.914;8.420;2023-04-25T14:07:44;99999.94;;;24.40
15709;BMP180;7954;51.914;8.420;2023-04-25T14:10:12;100029.16;;;22.42
15709;BMP180;7954;51.914;8.420;2023-04-25T14:12:40;100036.63;;;20.48
15709;BMP180;7954;51.914;8.420;2023-04-25T14:15:09;100038.38;;;19.60
15709;BMP180;7954;51.914;8.420;2023-04-25T14:17:39;100052.28;;;19.22
15709;BMP180;7954;51.914;8.420;2023-04-25T14:20:08;100059.28;;;19.11
15709;BMP180;7954;51.914;8.420;2023-04-25T14:22:37;100073.09;;;18.79
15709;BMP180;7954;51.914;8.420;2023-04-25T14:25:09;100068.72;;;18.59
15709;BMP180;7954;51.914;8.420;2023-04-25T14:27:37;100073.19;;;18.16
15709;BMP180;7954;51.914;8.420;2023-04-25T14:30:06;100073.19;;;17.72